Time;durP1;ratioP1;P1;durP2;ratioP2;P2;SDS_P1;SDS_P2;PMS_P1;PMS_P2;Temp;Humidity;BMP_temperature;BMP_pressure;BME280_temperature;BME280_humidity;BME280_pressure;Samples;Min_cycle;Max_cycle;Signal;HPM_P1;HPM_P2
2021/10/10 00:01:58;;;;;;;27.85;23.27;;;14.40;99.90;;;;;;5076196;28;20047;-84
2021/10/10 00:04:24;;;;;;;27.88;23.10;;;14.30;99.90;;;;;;5074234;28;20119;-84
2021/10/10 00:06:50;;;;;;;27.38;23.35;;;14.30;99.90;;;;;;5073430;28;20116;-84
2021/10/10 00:09:16;;;;;;;27.70;23.38;;;14.30;99.90;;;;;;5078370;28;20025;-84
2021/10/10 00:11:41;;;;;;;28.42;23.02;;;14.20;99.90;;;;;;5075748;28;20025;-84
2021/10/10 00:14:07;;;;;;;30.05;22.90;;;14.20;99.90;;;;;;5076097;28;20444;-84
2021/10/10 00:16:32;;;;;;;25.13;21.88;;;14.20;99.90;;;;;;5073488;28;20028;-84
2021/10/10 00:18:58;;;;;;;26.17;21.65;;;14.20;99.90;;;;;;5071106;28;20611;-84
2021/10/10 00:21:24;;;;;;;25.73;21.88;;;14.20;99.90;;;;;;5077018;28;20040;-84
2021/10/10 00:23:49;;;;;;;26.85;21.90;;;14.10;99.90;;;;;;5075655;28;20561;-84
2021/10/10 00:26:15;;;;;;;27.80;21.45;;;14.20;99.90;;;;;;5075327;28;20074;-84
2021/10/10 00:28:40;;;;;;;26.92;21.80;;;14.10;99.90;;;;;;5075916;28;20407;-84
2021/10/10 00:31:06;;;;;;;28.75;22.15;;;14.10;99.90;;;;;;5070790;28;20021;-83
2021/10/10 00:33:31;;;;;;;27.75;22.77;;;14.10;99.90;;;;;;5077083;28;20024;-84
2021/10/10 00:35:57;;;;;;;27.02;22.48;;;14.00;99.90;;;;;;5075750;28;20450;-84
2021/10/10 00:38:23;;;;;;;25.27;20.92;;;14.20;99.90;;;;;;5075039;28;20035;-84
2021/10/10 00:40:48;;;;;;;27.65;22.67;;;13.80;99.90;;;;;;5075329;28;20059;-83
2021/10/10 00:43:14;;;;;;;27.20;21.20;;;13.80;99.90;;;;;;5072180;28;20081;-84
2021/10/10 00:45:46;;;;;;;27.65;20.75;;;13.80;99.90;;;;;;5074990;28;20504;-84
2021/10/10 00:48:12;;;;;;;25.33;20.67;;;13.70;99.90;;;;;;5076579;28;20032;-84
2021/10/10 00:50:38;;;;;;;27.38;21.70;;;13.60;99.90;;;;;;5075392;28;20037;-84
2021/10/10 00:53:05;;;;;;;28.38;20.88;;;13.50;99.90;;;;;;5075410;28;20104;-84
2021/10/10 00:55:33;;;;;;;27.15;21.75;;;13.40;99.90;;;;;;5073143;28;20070;-84
2021/10/10 00:58:01;;;;;;;26.30;21.90;;;13.30;99.90;;;;;;5070477;28;20033;-84
2021/10/10 01:00:26;;;;;;;27.98;21.88;;;13.30;99.90;;;;;;5074716;28;20024;-84
2021/10/10 01:02:57;;;;;;;25.98;21.50;;;13.30;99.90;;;;;;5074627;28;20081;-84
2021/10/10 01:05:22;;;;;;;27.15;22.35;;;13.60;99.90;;;;;;5074751;28;20021;-84
2021/10/10 01:07:48;;;;;;;25.23;21.48;;;13.20;99.90;;;;;;5074654;28;20553;-84
2021/10/10 01:10:15;;;;;;;30.60;24.17;;;13.20;99.90;;;;;;5072117;28;20035;-84
2021/10/10 01:12:42;;;;;;;28.90;22.88;;;13.20;99.90;;;;;;5074751;28;20120;-84
2021/10/10 01:15:10;;;;;;;26.67;21.88;;;13.10;99.90;;;;;;5074685;28;20524;-85
2021/10/10 01:17:37;;;;;;;28.27;22.15;;;13.10;99.90;;;;;;5074586;28;20033;-84
2021/10/10 01:20:08;;;;;;;30.35;22.92;;;13.10;99.90;;;;;;5074865;28;20017;-84
2021/10/10 01:22:35;;;;;;;31.48;22.90;;;13.10;99.90;;;;;;5074697;28;20043;-84
2021/10/10 01:25:01;;;;;;;30.02;23.27;;;13.20;99.90;;;;;;5069243;28;20036;-84
2021/10/10 01:27:27;;;;;;;26.83;21.88;;;13.30;99.90;;;;;;5076451;28;20040;-84
2021/10/10 01:29:53;;;;;;;28.67;22.42;;;13.80;99.90;;;;;;5074286;28;20031;-84
2021/10/10 01:32:19;;;;;;;28.33;21.95;;;13.40;99.90;;;;;;5074702;28;20020;-84
2021/10/10 01:34:46;;;;;;;30.83;24.00;;;13.40;99.90;;;;;;5073371;28;20024;-84
2021/10/10 01:37:12;;;;;;;28.83;22.85;;;13.80;99.90;;;;;;5070194;28;20025;-84
2021/10/10 01:39:38;;;;;;;26.38;22.40;;;13.40;99.90;;;;;;5074960;28;20016;-84
2021/10/10 01:42:04;;;;;;;30.02;23.63;;;13.40;99.90;;;;;;5074643;28;20024;-84
2021/10/10 01:44:30;;;;;;;26.40;22.30;;;13.40;99.90;;;;;;5074661;28;20460;-83
2021/10/10 01:46:56;;;;;;;26.10;21.38;;;13.40;99.90;;;;;;5074700;28;20063;-84
2021/10/10 01:49:22;;;;;;;26.90;21.63;;;13.50;99.90;;;;;;5072630;28;20027;-84
2021/10/10 01:51:48;;;;;;;24.95;20.38;;;13.40;99.90;;;;;;5072456;28;20029;-84
2021/10/10 01:54:13;;;;;;;27.77;21.77;;;13.40;99.90;;;;;;5075914;28;20035;-84
2021/10/10 01:56:39;;;;;;;26.38;21.77;;;13.30;99.90;;;;;;5074121;28;20484;-84
2021/10/10 01:59:04;;;;;;;24.45;19.90;;;13.40;99.90;;;;;;5074841;28;20020;-84
2021/10/10 02:01:30;;;;;;;25.10;20.80;;;13.40;99.90;;;;;;5072244;28;20036;-83
2021/10/10 02:03:55;;;;;;;26.95;20.77;;;13.40;99.90;;;;;;5071062;28;20489;-84
2021/10/10 02:06:21;;;;;;;27.55;21.38;;;13.40;99.90;;;;;;5076553;28;20040;-84
2021/10/10 02:08:47;;;;;;;25.23;20.23;;;13.40;99.90;;;;;;5074656;28;20027;-84
2021/10/10 02:11:12;;;;;;;25.52;21.40;;;13.30;99.90;;;;;;5074203;28;20434;-84
2021/10/10 02:13:38;;;;;;;29.25;21.58;;;13.40;99.90;;;;;;5071809;28;20024;-84
2021/10/10 02:16:04;;;;;;;24.83;21.00;;;13.30;99.90;;;;;;5068051;28;20036;-84
2021/10/10 02:18:29;;;;;;;28.33;22.05;;;13.30;99.90;;;;;;5074912;28;20027;-84
2021/10/10 02:20:55;;;;;;;27.35;22.85;;;13.70;99.90;;;;;;5072991;28;20123;-84
2021/10/10 02:23:21;;;;;;;26.02;21.73;;;13.40;99.90;;;;;;5077121;28;20116;-84
2021/10/10 02:25:46;;;;;;;26.17;21.42;;;13.50;99.90;;;;;;5077749;28;20032;-84
2021/10/10 02:28:12;;;;;;;26.80;22.05;;;13.50;99.90;;;;;;5075332;28;20051;-84
2021/10/10 02:30:37;;;;;;;28.77;24.13;;;13.50;99.90;;;;;;5078404;28;20056;-84
2021/10/10 02:33:03;;;;;;;26.88;22.38;;;13.60;99.90;;;;;;5078412;28;20025;-84
2021/10/10 02:35:29;;;;;;;28.60;21.92;;;13.40;99.90;;;;;;5077929;28;20503;-84
2021/10/10 02:37:54;;;;;;;27.08;22.05;;;13.40;99.90;;;;;;5077692;28;20036;-84
2021/10/10 02:40:20;;;;;;;27.25;23.42;;;13.50;99.90;;;;;;5075476;28;20032;-84
2021/10/10 02:42:46;;;;;;;28.13;22.65;;;13.50;99.90;;;;;;5076424;28;20029;-84
2021/10/10 02:45:11;;;;;;;28.33;22.65;;;13.50;99.90;;;;;;5077429;28;20025;-84
2021/10/10 02:47:37;;;;;;;27.10;22.08;;;13.50;99.90;;;;;;5077726;28;20058;-84
2021/10/10 02:50:05;;;;;;;27.45;22.30;;;13.50;99.90;;;;;;5077870;28;20028;-84
2021/10/10 02:52:31;;;;;;;27.95;23.33;;;13.60;99.90;;;;;;5075310;28;20028;-84
2021/10/10 02:54:56;;;;;;;26.38;21.90;;;13.60;99.90;;;;;;5073343;28;20031;-84
2021/10/10 02:57:22;;;;;;;27.85;23.13;;;13.50;99.90;;;;;;5078997;28;20038;-84
2021/10/10 02:59:47;;;;;;;29.10;22.33;;;13.40;99.90;;;;;;5077315;28;20111;-84
2021/10/10 03:02:13;;;;;;;26.50;21.83;;;13.40;99.90;;;;;;5077242;28;20116;-84
2021/10/10 03:04:39;;;;;;;30.45;23.50;;;13.40;99.90;;;;;;5077287;28;20032;-84
2021/10/10 03:07:04;;;;;;;28.63;23.63;;;13.40;99.90;;;;;;5073264;28;20036;-82
2021/10/10 03:09:30;;;;;;;28.95;23.92;;;13.30;99.90;;;;;;5079277;28;20057;-82
2021/10/10 03:11:56;;;;;;;30.98;23.85;;;13.40;99.90;;;;;;5076862;28;20028;-82
2021/10/10 03:14:21;;;;;;;29.38;23.27;;;13.40;99.90;;;;;;5077025;28;20028;-82
2021/10/10 03:16:47;;;;;;;28.85;22.98;;;13.40;99.90;;;;;;5077041;28;20415;-82
2021/10/10 03:19:13;;;;;;;31.02;23.83;;;13.30;99.90;;;;;;5073917;28;20016;-82
2021/10/10 03:21:39;;;;;;;27.65;21.85;;;13.30;99.90;;;;;;5078409;28;20562;-82
2021/10/10 03:24:06;;;;;;;27.95;22.23;;;13.30;99.90;;;;;;5077201;28;20398;-83
2021/10/10 03:26:32;;;;;;;26.90;21.77;;;13.30;99.90;;;;;;5077123;28;20508;-83
2021/10/10 03:28:58;;;;;;;28.70;23.15;;;13.30;99.90;;;;;;5076593;28;20032;-82
2021/10/10 03:31:24;;;;;;;27.52;21.65;;;13.30;99.90;;;;;;5073789;28;20029;-83
2021/10/10 03:33:49;;;;;;;30.15;22.75;;;13.30;99.90;;;;;;5075019;28;20031;-82
2021/10/10 03:36:15;;;;;;;26.58;22.15;;;13.30;99.90;;;;;;5076594;28;20059;-83
2021/10/10 03:38:40;;;;;;;27.77;22.83;;;13.30;99.90;;;;;;5076849;28;20032;-82
2021/10/10 03:41:06;;;;;;;25.92;21.55;;;13.30;99.90;;;;;;5076277;28;20111;-83
2021/10/10 03:43:33;;;;;;;27.35;21.85;;;13.30;99.90;;;;;;5076058;28;20016;-82
2021/10/10 03:45:59;;;;;;;30.30;22.58;;;13.30;99.90;;;;;;5073166;28;20499;-82
2021/10/10 03:48:24;;;;;;;29.75;22.45;;;13.60;99.90;;;;;;5078252;28;20020;-83
2021/10/10 03:50:51;;;;;;;27.90;22.42;;;13.20;99.90;;;;;;5076709;28;20512;-82
2021/10/10 03:53:17;;;;;;;26.13;21.65;;;13.20;99.90;;;;;;5076221;28;20043;-82
2021/10/10 03:55:43;;;;;;;28.00;21.98;;;13.60;99.90;;;;;;5076054;28;20555;-83
2021/10/10 03:58:13;;;;;;;28.60;21.77;;;13.30;99.90;;;;;;5072875;28;20481;-82
2021/10/10 04:00:39;;;;;;;25.63;22.33;;;13.10;99.90;;;;;;5076947;28;20039;-82
2021/10/10 04:03:06;;;;;;;24.40;20.00;;;13.00;99.90;;;;;;5084764;28;20028;-83
2021/10/10 04:07:59;;;;;;;26.25;21.42;;;13.10;99.90;;;;;;5075251;28;20036;-83
2021/10/10 04:10:25;;;;;;;27.50;20.90;;;13.00;99.90;;;;;;5073098;28;20017;-83
2021/10/10 04:12:51;;;;;;;27.55;21.67;;;13.00;99.90;;;;;;5073849;28;20029;-83
2021/10/10 04:15:17;;;;;;;29.80;21.58;;;13.40;99.90;;;;;;5076652;28;20439;-83
2021/10/10 04:17:44;;;;;;;30.20;21.58;;;13.50;99.90;;;;;;5075968;28;20032;-83
2021/10/10 04:20:12;;;;;;;24.02;20.45;;;12.90;99.90;;;;;;5075737;28;20027;-83
2021/10/10 04:22:38;;;;;;;26.52;20.95;;;12.80;99.90;;;;;;5075437;28;20048;-83
2021/10/10 04:25:05;;;;;;;25.98;20.95;;;12.70;99.90;;;;;;5055166;28;20059;-82
2021/10/10 04:27:33;;;;;;;29.90;22.90;;;12.60;99.90;;;;;;5077611;28;20051;-83
2021/10/10 04:29:59;;;;;;;25.48;20.67;;;12.60;99.90;;;;;;5075948;28;20033;-83
2021/10/10 04:32:24;;;;;;;24.85;20.40;;;12.50;99.90;;;;;;5075904;28;20028;-83
2021/10/10 04:34:50;;;;;;;27.50;21.23;;;12.40;99.90;;;;;;5076067;28;20662;-82
2021/10/10 04:37:15;;;;;;;29.90;21.85;;;12.40;99.90;;;;;;5072432;28;20036;-83
2021/10/10 04:39:41;;;;;;;26.25;21.30;;;12.30;99.90;;;;;;5075827;28;20416;-83
2021/10/10 04:42:07;;;;;;;29.08;21.83;;;12.30;99.90;;;;;;5076041;28;20035;-83
2021/10/10 04:44:33;;;;;;;28.85;22.58;;;12.30;99.90;;;;;;5075598;28;20027;-83
2021/10/10 04:46:58;;;;;;;30.80;23.25;;;12.20;99.90;;;;;;5075334;28;20133;-83
2021/10/10 04:49:24;;;;;;;29.40;23.25;;;12.20;99.90;;;;;;5074244;28;20511;-83
2021/10/10 04:51:50;;;;;;;27.52;21.88;;;12.10;99.90;;;;;;5073547;28;20039;-83
2021/10/10 04:54:15;;;;;;;25.83;20.70;;;12.10;99.90;;;;;;5075068;28;20017;-83
2021/10/10 04:56:41;;;;;;;29.23;22.25;;;12.00;99.90;;;;;;5074472;28;20086;-83
2021/10/10 04:59:07;;;;;;;27.30;21.85;;;12.30;99.90;;;;;;5075032;28;20029;-83
2021/10/10 05:01:33;;;;;;;25.65;20.73;;;12.00;99.90;;;;;;5073360;28;20111;-84
2021/10/10 05:03:58;;;;;;;27.67;21.92;;;11.90;99.90;;;;;;5071412;28;20120;-83
2021/10/10 05:06:24;;;;;;;29.08;21.65;;;11.80;99.90;;;;;;5076091;28;20094;-83
2021/10/10 05:08:49;;;;;;;28.58;22.55;;;11.90;99.90;;;;;;5075080;28;20099;-83
2021/10/10 05:11:15;;;;;;;28.13;22.30;;;12.30;99.90;;;;;;5075170;28;20523;-83
2021/10/10 05:13:41;;;;;;;28.65;21.52;;;11.90;99.90;;;;;;5074831;28;20036;-83
2021/10/10 05:16:06;;;;;;;30.85;22.00;;;12.30;99.90;;;;;;5068889;28;20016;-83
2021/10/10 05:18:32;;;;;;;28.92;22.23;;;12.10;99.90;;;;;;5092909;28;20024;-83
2021/10/10 05:20:58;;;;;;;30.77;22.55;;;12.20;99.90;;;;;;5074245;28;20032;-83
2021/10/10 05:23:23;;;;;;;32.08;22.70;;;12.20;99.90;;;;;;5073825;28;20044;-83
2021/10/10 05:25:49;;;;;;;29.85;22.45;;;12.40;99.90;;;;;;5075220;28;20032;-83
2021/10/10 05:28:15;;;;;;;33.47;23.83;;;12.50;99.90;;;;;;5069914;28;20056;-83
2021/10/10 05:30:40;;;;;;;36.53;25.13;;;12.60;99.90;;;;;;5074420;28;20052;-83
2021/10/10 05:33:06;;;;;;;33.88;25.27;;;12.30;99.90;;;;;;5073891;28;20037;-83
2021/10/10 05:35:31;;;;;;;32.10;24.90;;;12.40;99.90;;;;;;5074168;28;20029;-82
2021/10/10 05:37:58;;;;;;;35.00;25.83;;;12.30;99.90;;;;;;5074108;28;20517;-83
2021/10/10 05:40:23;;;;;;;35.13;25.70;;;12.50;99.90;;;;;;5072779;28;20036;-83
2021/10/10 05:42:49;;;;;;;37.25;25.75;;;12.40;99.90;;;;;;5072450;28;20496;-83
2021/10/10 05:45:15;;;;;;;34.47;25.27;;;12.30;99.90;;;;;;5076210;28;20033;-83
2021/10/10 05:47:40;;;;;;;38.85;25.05;;;12.20;99.90;;;;;;5073710;28;20048;-83
2021/10/10 05:50:07;;;;;;;32.72;24.55;;;12.30;99.90;;;;;;5073267;28;20229;-82
2021/10/10 05:52:33;;;;;;;34.60;25.25;;;12.40;99.90;;;;;;5073574;28;20024;-82
2021/10/10 05:54:59;;;;;;;32.20;24.58;;;12.60;99.90;;;;;;5070195;28;20466;-82
2021/10/10 05:57:35;;;;;;;33.97;24.67;;;12.40;99.90;;;;;;5075714;28;20095;-82
2021/10/10 06:00:06;;;;;;;36.45;26.50;;;12.60;99.90;;;;;;5072831;28;20124;-84
2021/10/10 06:02:32;;;;;;;37.92;26.23;;;12.70;99.90;;;;;;5073929;28;20025;-82
2021/10/10 06:04:57;;;;;;;34.35;25.63;;;12.60;99.90;;;;;;5073824;28;20032;-83
2021/10/10 06:07:23;;;;;;;38.22;26.17;;;12.70;99.90;;;;;;5071040;28;20037;-83
2021/10/10 06:09:49;;;;;;;37.38;25.80;;;12.60;99.90;;;;;;5072289;28;20377;-88
2021/10/10 06:12:14;;;;;;;35.75;26.17;;;12.60;99.90;;;;;;5072087;28;20028;-86
2021/10/10 06:14:40;;;;;;;36.35;27.02;;;12.60;99.90;;;;;;5074652;28;20020;-86
2021/10/10 06:17:07;;;;;;;40.20;28.88;;;12.60;99.90;;;;;;5072436;28;20047;-86
2021/10/10 06:19:35;;;;;;;35.03;25.13;;;12.70;99.90;;;;;;5073029;28;20020;-85
2021/10/10 06:22:00;;;;;;;33.78;25.50;;;13.10;99.90;;;;;;5069179;28;20086;-85
2021/10/10 06:24:26;;;;;;;33.53;24.35;;;12.70;99.90;;;;;;5075766;28;20028;-86
2021/10/10 06:26:52;;;;;;;34.75;23.52;;;12.70;99.90;;;;;;5084047;28;20040;-86
2021/10/10 06:29:17;;;;;;;28.42;21.73;;;12.90;99.90;;;;;;5080001;28;20021;-87
2021/10/10 06:31:43;;;;;;;27.83;22.05;;;13.20;99.90;;;;;;5073522;28;20031;-87
2021/10/10 06:34:09;;;;;;;25.20;20.45;;;12.90;99.90;;;;;;5115646;28;20074;-88
2021/10/10 06:36:34;;;;;;;25.80;20.33;;;12.80;99.90;;;;;;5092966;28;20024;-85
2021/10/10 06:39:00;;;;;;;23.30;18.10;;;12.80;99.90;;;;;;5071391;28;20044;-91
2021/10/10 06:41:26;;;;;;;21.83;17.83;;;12.80;99.90;;;;;;5068619;28;20028;-83
2021/10/10 06:43:51;;;;;;;23.50;17.75;;;12.70;99.90;;;;;;5068074;28;20033;-81
2021/10/10 06:46:17;;;;;;;23.60;16.77;;;12.70;99.90;;;;;;5068725;28;20025;-85
2021/10/10 06:48:43;;;;;;;23.02;17.17;;;12.90;99.90;;;;;;5070221;28;20108;-85
2021/10/10 06:51:09;;;;;;;19.88;16.33;;;13.00;99.90;;;;;;5069949;28;20028;-83
2021/10/10 06:53:34;;;;;;;21.08;16.33;;;12.90;99.90;;;;;;5068133;28;20043;-83
2021/10/10 06:56:04;;;;;;;20.63;16.77;;;13.00;99.90;;;;;;5067987;28;20029;-83
2021/10/10 06:58:30;;;;;;;22.05;17.58;;;13.00;99.90;;;;;;5068237;28;20106;-83
2021/10/10 07:00:56;;;;;;;19.65;16.05;;;13.10;99.90;;;;;;5070096;28;20044;-83
2021/10/10 07:03:22;;;;;;;21.00;16.83;;;13.30;99.90;;;;;;5071790;28;20082;-83
2021/10/10 07:05:47;;;;;;;21.17;16.75;;;13.40;99.90;;;;;;5072146;28;20128;-84
2021/10/10 07:08:13;;;;;;;21.23;16.83;;;13.20;99.90;;;;;;5071782;28;20047;-83
2021/10/10 07:10:38;;;;;;;19.08;15.88;;;13.10;99.90;;;;;;5074628;28;20510;-82
2021/10/10 07:13:04;;;;;;;19.17;15.85;;;13.20;99.90;;;;;;5072255;28;20557;-80
2021/10/10 07:15:30;;;;;;;20.55;16.15;;;13.20;99.90;;;;;;5076884;28;20525;-81
2021/10/10 07:18:00;;;;;;;22.25;16.92;;;13.40;99.90;;;;;;5075398;28;20028;-82
2021/10/10 07:23:27;;;;;;;20.73;16.15;;;13.50;99.90;;;;;;5076694;28;20090;-84
2021/10/10 07:25:54;;;;;;;18.58;15.57;;;13.80;99.90;;;;;;5075599;28;20024;-82
2021/10/10 07:28:20;;;;;;;20.42;16.15;;;13.30;99.90;;;;;;5072020;28;20175;-82
2021/10/10 07:30:48;;;;;;;18.77;16.23;;;13.30;99.90;;;;;;5074830;28;20548;-83
2021/10/10 07:33:17;;;;;;;20.30;15.82;;;13.20;99.90;;;;;;5078403;28;20171;-81
2021/10/10 07:35:43;;;;;;;20.85;15.93;;;13.20;99.90;;;;;;5076307;28;20017;-82
2021/10/10 07:38:08;;;;;;;21.00;16.02;;;13.60;99.90;;;;;;5076174;28;20035;-80
2021/10/10 07:40:34;;;;;;;21.15;16.42;;;13.70;99.90;;;;;;5076277;28;20517;-83
2021/10/10 07:43:00;;;;;;;20.05;16.02;;;13.20;99.90;;;;;;5072064;28;20118;-84
2021/10/10 07:45:26;;;;;;;20.10;16.75;;;12.90;99.90;;;;;;5074658;28;20017;-83
2021/10/10 07:47:52;;;;;;;20.67;15.45;;;13.10;99.90;;;;;;5072240;28;20029;-84
2021/10/10 07:50:20;;;;;;;19.75;16.75;;;12.80;99.90;;;;;;5072957;28;20021;-80
2021/10/10 07:52:47;;;;;;;19.55;17.20;;;13.10;99.90;;;;;;5074615;28;20392;-81
2021/10/10 07:55:13;;;;;;;19.27;15.43;;;13.20;99.90;;;;;;5068439;28;20028;-84
2021/10/10 07:57:39;;;;;;;20.42;15.85;;;13.20;99.90;;;;;;5071660;28;20424;-87
2021/10/10 08:00:06;;;;;;;19.48;16.35;;;13.50;99.90;;;;;;5070067;28;20113;-83
2021/10/10 08:02:33;;;;;;;20.73;16.42;;;13.10;99.90;;;;;;5067774;28;20144;-84
2021/10/10 08:04:58;;;;;;;19.48;16.10;;;12.90;99.90;;;;;;5071384;28;20116;-86
2021/10/10 08:07:24;;;;;;;17.25;15.27;;;13.60;99.90;;;;;;5070687;28;20104;-83
2021/10/10 08:09:50;;;;;;;19.63;16.23;;;13.10;99.90;;;;;;5070567;28;20025;-82
2021/10/10 08:12:15;;;;;;;18.98;15.82;;;13.30;99.90;;;;;;5071860;28;20036;-85
2021/10/10 08:14:41;;;;;;;20.90;16.45;;;13.50;99.90;;;;;;5070393;28;20035;-84
2021/10/10 08:17:06;;;;;;;19.35;15.60;;;13.40;99.90;;;;;;5070318;28;20108;-83
2021/10/10 08:19:32;;;;;;;21.33;16.80;;;13.30;99.90;;;;;;5067591;28;20024;-85
2021/10/10 08:21:58;;;;;;;20.13;15.57;;;13.40;99.90;;;;;;5070250;28;20029;-86
2021/10/10 08:24:24;;;;;;;19.27;15.55;;;13.40;99.90;;;;;;5072213;28;20020;-84
2021/10/10 08:26:50;;;;;;;19.67;16.17;;;13.80;99.90;;;;;;5081025;28;20097;-85
2021/10/10 08:29:17;;;;;;;20.02;16.83;;;13.90;99.90;;;;;;5082066;28;20600;-85
2021/10/10 08:31:43;;;;;;;20.83;16.17;;;14.10;99.90;;;;;;5075211;28;20024;-85
2021/10/10 08:34:09;;;;;;;21.73;16.67;;;14.10;99.90;;;;;;5071300;28;20025;-85
2021/10/10 08:36:34;;;;;;;21.92;15.57;;;14.40;99.90;;;;;;5077247;28;20025;-85
2021/10/10 08:39:00;;;;;;;27.75;24.75;;;14.60;99.90;;;;;;5075303;28;20028;-85
2021/10/10 08:41:32;;;;;;;25.52;21.27;;;14.90;99.90;;;;;;5075693;28;20021;-87
2021/10/10 08:44:01;;;;;;;20.80;16.20;;;15.90;99.90;;;;;;5073640;28;20059;-87
2021/10/10 08:46:29;;;;;;;18.00;15.00;;;16.20;99.90;;;;;;5072146;28;20039;-86
2021/10/10 08:48:55;;;;;;;17.63;14.38;;;20.60;99.90;;;;;;5070777;28;20033;-86
2021/10/10 08:51:21;;;;;;;17.52;15.10;;;18.60;99.90;;;;;;5076944;28;20395;-86
2021/10/10 08:53:47;;;;;;;20.15;15.75;;;17.00;99.90;;;;;;5074998;28;20043;-86
2021/10/10 08:56:13;;;;;;;18.83;15.73;;;18.80;99.90;;;;;;5075254;28;20029;-86
2021/10/10 08:58:43;;;;;;;18.92;15.43;;;18.70;99.90;;;;;;5074930;28;20023;-86
2021/10/10 09:01:16;;;;;;;19.45;16.13;;;16.90;99.90;;;;;;5070772;28;20469;-86
2021/10/10 09:03:53;;;;;;;20.48;16.45;;;15.90;99.90;;;;;;5074902;28;20033;-86
2021/10/10 09:06:19;;;;;;;18.77;15.82;;;15.60;99.90;;;;;;5077082;28;20024;-86
2021/10/10 09:08:45;;;;;;;19.63;16.10;;;16.90;99.90;;;;;;5075158;28;20078;-86
2021/10/10 09:11:11;;;;;;;17.45;15.32;;;19.90;99.90;;;;;;5074846;28;20028;-84
2021/10/10 09:13:39;;;;;;;17.33;15.07;;;23.80;99.90;;;;;;5073961;28;20400;-84
2021/10/10 09:16:06;;;;;;;17.75;15.40;;;23.70;99.90;;;;;;5054749;28;20039;-84
2021/10/10 09:18:35;;;;;;;16.65;14.82;;;24.90;99.90;;;;;;5076652;28;20021;-84
2021/10/10 09:21:27;;;;;;;22.45;18.40;;;26.90;99.90;;;;;;5074560;28;20525;-84
2021/10/10 09:23:55;;;;;;;18.67;16.65;;;27.70;99.90;;;;;;5072871;28;20076;-85
2021/10/10 09:26:22;;;;;;;17.95;16.05;;;26.20;99.90;;;;;;5072456;28;20052;-85
2021/10/10 09:28:49;;;;;;;18.52;16.63;;;26.10;99.90;;;;;;5074826;28;20024;-86
2021/10/10 09:31:16;;;;;;;18.80;16.80;;;24.60;99.90;;;;;;5071187;28;20112;-85
2021/10/10 09:33:54;;;;;;;18.35;16.45;;;23.60;99.90;;;;;;5074360;28;20033;-85
2021/10/10 09:36:22;;;;;;;19.23;17.23;;;26.30;99.90;;;;;;5074532;28;20032;-85
2021/10/10 09:39:08;;;;;;;18.73;16.65;;;26.50;99.90;;;;;;5074520;28;20024;-85
2021/10/10 09:41:38;;;;;;;19.10;16.98;;;25.70;99.90;;;;;;5073987;28;20027;-85
2021/10/10 09:46:43;;;;;;;20.10;18.02;;;26.20;99.90;;;;;;5074133;28;20047;-84
2021/10/10 09:49:30;;;;;;;21.40;16.17;;;28.60;99.90;;;;;;5054674;28;20021;-85
2021/10/10 09:52:07;;;;;;;20.88;18.70;;;27.00;99.90;;;;;;5070828;28;20440;-85
2021/10/10 09:54:53;;;;;;;20.73;18.23;;;28.80;99.90;;;;;;5083439;28;20031;-85
2021/10/10 09:57:20;;;;;;;20.23;18.10;;;28.90;99.90;;;;;;5072688;28;20037;-84
2021/10/10 09:59:46;;;;;;;21.10;19.08;;;29.80;99.90;;;;;;5073936;28;20111;-85
2021/10/10 10:02:12;;;;;;;19.63;17.60;;;30.30;99.90;;;;;;5072940;28;20111;-85
2021/10/10 10:04:43;;;;;;;21.45;19.35;;;30.00;99.90;;;;;;5072951;28;20020;-84
2021/10/10 10:07:14;;;;;;;20.00;17.90;;;29.40;99.90;;;;;;5054126;28;20029;-85
2021/10/10 10:09:39;;;;;;;23.02;20.63;;;30.00;99.90;;;;;;5074249;28;20046;-85
2021/10/10 10:12:06;;;;;;;20.45;18.35;;;26.40;99.90;;;;;;5074428;28;20492;-85
2021/10/10 10:14:32;;;;;;;21.77;19.52;;;22.80;99.90;;;;;;5073866;28;20048;-85
2021/10/10 10:17:02;;;;;;;20.90;18.80;;;21.30;99.90;;;;;;5074091;28;20071;-85
2021/10/10 10:19:28;;;;;;;23.48;20.88;;;20.20;99.90;;;;;;5072694;28;20138;-84
2021/10/10 10:21:56;;;;;;;22.63;18.98;;;20.50;99.90;;;;;;5070744;28;20449;-84
2021/10/10 10:24:24;;;;;;;21.73;19.42;;;20.50;99.90;;;;;;5074936;28;20032;-84
2021/10/10 10:26:50;;;;;;;19.92;17.77;;;21.30;99.90;;;;;;5073399;28;20047;-83
2021/10/10 10:29:26;;;;;;;19.90;17.73;;;20.30;99.90;;;;;;5072741;28;20025;-84
2021/10/10 10:31:54;;;;;;;23.48;20.02;;;21.00;99.90;;;;;;5073699;28;20035;-84
2021/10/10 10:34:21;;;;;;;21.23;16.80;;;27.10;99.90;;;;;;5071149;28;20039;-85
2021/10/10 10:37:02;;;;;;;21.90;19.45;;;27.90;99.90;;;;;;5076654;28;20500;-83
2021/10/10 10:39:44;;;;;;;21.08;18.88;;;24.10;99.90;;;;;;5074888;28;20115;-82
2021/10/10 10:42:33;;;;;;;19.60;17.50;;;21.70;99.90;;;;;;5076275;28;20082;-82
2021/10/10 10:44:59;;;;;;;19.20;17.13;;;27.70;99.90;;;;;;5081642;28;20025;-88
2021/10/10 10:47:37;;;;;;;21.60;19.25;;;29.00;99.90;;;;;;5081726;28;20059;-86
2021/10/10 10:50:05;;;;;;;19.27;17.35;;;27.80;99.90;;;;;;5078851;28;20021;-92
2021/10/10 10:52:42;;;;;;;18.95;17.05;;;24.10;99.90;;;;;;5075696;28;20403;-83
2021/10/10 10:55:22;;;;;;;19.60;17.60;;;29.60;99.90;;;;;;5070980;28;20032;-83
2021/10/10 10:57:54;;;;;;;20.92;18.40;;;26.70;99.90;;;;;;5086973;28;20392;-84
2021/10/10 11:00:34;;;;;;;18.77;16.88;;;26.90;99.90;;;;;;5075194;28;20037;-82
2021/10/10 11:03:09;;;;;;;21.65;19.10;;;23.80;99.90;;;;;;5079700;28;20400;-82
2021/10/10 11:05:45;;;;;;;21.23;18.90;;;22.50;99.90;;;;;;5077895;28;20511;-82
2021/10/10 11:08:16;;;;;;;23.80;19.08;;;26.50;99.90;;;;;;5075205;28;20032;-81
2021/10/10 11:11:04;;;;;;;18.13;15.68;;;28.60;99.90;;;;;;5075254;28;20016;-83
2021/10/10 11:13:50;;;;;;;17.67;15.93;;;24.50;99.90;;;;;;5074851;28;20036;-83
2021/10/10 11:16:18;;;;;;;16.58;14.95;;;24.00;99.90;;;;;;5068532;28;20050;-89
2021/10/10 11:18:48;;;;;;;17.48;15.65;;;23.20;99.90;;;;;;5089490;28;20027;-82
2021/10/10 11:21:16;;;;;;;17.65;15.75;;;21.40;99.90;;;;;;5078519;28;20048;-83
2021/10/10 11:23:43;;;;;;;17.33;15.52;;;25.10;99.90;;;;;;5080637;28;20036;-87
2021/10/10 11:26:11;;;;;;;16.75;15.05;;;28.10;99.90;;;;;;5081564;28;20063;-88
2021/10/10 11:28:55;;;;;;;15.88;14.38;;;27.50;99.90;;;;;;5076199;28;20031;-86
2021/10/10 11:31:23;;;;;;;16.23;14.63;;;27.50;99.90;;;;;;5062610;28;20025;-89
2021/10/10 11:33:56;;;;;;;16.17;14.57;;;29.10;99.90;;;;;;5087368;28;20074;-86
2021/10/10 11:36:34;;;;;;;17.58;15.70;;;29.60;99.90;;;;;;5077558;28;20021;-89
2021/10/10 11:39:01;;;;;;;91.28;45.63;;;27.00;99.90;;;;;;5078831;28;20119;-88
2021/10/10 11:41:27;;;;;;;17.98;16.27;;;27.40;99.90;;;;;;5074682;28;20066;-86
2021/10/10 11:44:04;;;;;;;17.25;15.50;;;28.60;99.90;;;;;;5073903;28;20033;-84
2021/10/10 11:46:38;;;;;;;16.02;14.48;;;28.60;99.90;;;;;;5088170;28;20039;-85
2021/10/10 11:49:21;;;;;;;17.60;15.77;;;26.10;99.90;;;;;;5077939;28;20076;-82
2021/10/10 11:51:49;;;;;;;18.00;16.20;;;24.90;99.90;;;;;;5086144;28;20094;-85
2021/10/10 11:54:36;;;;;;;19.52;17.60;;;22.60;99.90;;;;;;5078904;28;20116;-86
2021/10/10 11:57:02;;;;;;;19.48;17.48;;;22.00;99.90;;;;;;5081217;28;20028;-86
2021/10/10 11:59:27;;;;;;;16.17;14.55;;;23.30;99.90;;;;;;5076056;28;20123;-89
2021/10/10 12:01:54;;;;;;;18.73;16.83;;;24.00;99.90;;;;;;5084054;28;20032;-85
2021/10/10 12:04:21;;;;;;;17.35;15.65;;;21.40;99.90;;;;;;5073378;28;20060;-90
2021/10/10 12:06:49;;;;;;;16.73;15.07;;;20.50;99.90;;;;;;5090245;28;20085;-85
2021/10/10 12:09:15;;;;;;;23.08;20.77;;;19.90;99.90;;;;;;5079628;28;20120;-83
2021/10/10 12:11:41;;;;;;;16.98;15.25;;;21.00;99.90;;;;;;5076158;28;20470;-84
2021/10/10 12:14:08;;;;;;;18.02;16.27;;;21.90;99.90;;;;;;5083528;28;20031;-83
2021/10/10 12:16:46;;;;;;;17.70;15.02;;;20.50;99.90;;;;;;5075195;28;20016;-82
2021/10/10 12:19:12;;;;;;;19.02;16.70;;;19.50;99.90;;;;;;5056960;28;20029;-84
2021/10/10 12:21:38;;;;;;;17.73;15.80;;;18.60;99.90;;;;;;5076210;28;20473;-82
2021/10/10 12:24:14;;;;;;;18.10;16.20;;;18.10;99.90;;;;;;5076019;28;20089;-84
2021/10/10 12:26:47;;;;;;;17.27;15.30;;;18.20;99.90;;;;;;5082635;28;20399;-86
2021/10/10 12:29:47;;;;;;;17.73;15.82;;;18.30;99.90;;;;;;5081190;28;20507;-83
2021/10/10 12:32:20;;;;;;;19.15;16.92;;;18.90;99.90;;;;;;5076416;28;20115;-86
2021/10/10 12:34:46;;;;;;;17.65;15.13;;;18.90;99.90;;;;;;5086188;28;20028;-85
2021/10/10 12:37:17;;;;;;;17.65;14.90;;;20.80;99.90;;;;;;5072184;28;20037;-85
2021/10/10 12:39:44;;;;;;;19.40;16.40;;;20.70;99.90;;;;;;5075630;28;20031;-87